Time;durP1;ratioP1;P1;durP2;ratioP2;P2;SDS_P1;SDS_P2;PMS_P1;PMS_P2;Temp;Humidity;BMP_temperature;BMP_pressure;BME280_temperature;BME280_humidity;BME280_pressure;Samples;Min_cycle;Max_cycle;Signal;HPM_P1;HPM_P2
2023/01/18 00:52:00;;;;;;;73.50;41.00;;;;;;;4.23;100.00;98399.69;104154;1305;545737;-72
2023/01/18 00:54:27;;;;;;;67.70;38.30;;;;;;;4.38;100.00;98405.90;106425;1289;25247;-72
2023/01/18 00:56:54;;;;;;;56.60;33.90;;;;;;;4.56;100.00;98404.33;106438;1289;22635;-73
2023/01/18 00:59:21;;;;;;;49.10;30.60;;;;;;;4.70;100.00;98398.71;106557;1288;22548;-72
2023/01/18 01:01:48;;;;;;;43.70;25.70;;;;;;;4.81;100.00;98395.55;106661;1289;22514;-73
2023/01/18 01:07:01;;;;;;;34.80;20.20;;;;;;;5.02;100.00;98383.77;106497;1287;22560;-72
2023/01/18 01:09:28;;;;;;;30.80;19.10;;;;;;;5.11;100.00;98381.95;106854;1287;22574;-72
2023/01/18 01:26:09;;;;;;;26.60;16.60;;;;;;;5.49;100.00;98389.83;106756;1285;22556;-72
2023/01/18 01:28:38;;;;;;;30.90;18.10;;;;;;;5.52;100.00;98384.42;109987;1279;22353;-72
2023/01/18 01:31:06;;;;;;;28.40;17.50;;;;;;;5.53;100.00;98376.44;109926;1279;22325;-72
2023/01/18 01:33:34;;;;;;;26.90;16.90;;;;;;;5.60;100.00;98364.88;110106;1279;22420;-73
2023/01/18 01:36:06;;;;;;;31.40;17.10;;;;;;;5.66;100.00;98358.88;109981;1279;22429;-72
2023/01/18 01:38:33;;;;;;;27.00;16.50;;;;;;;5.71;100.00;98349.90;109941;1279;22282;-72
2023/01/18 01:41:00;;;;;;;25.30;16.10;;;;;;;5.75;100.00;98338.16;110089;1279;22214;-72
2023/01/18 01:43:43;;;;;;;26.10;16.50;;;;;;;5.79;100.00;98341.40;109987;1279;23016;-73
2023/01/18 01:46:31;;;;;;;26.70;16.60;;;;;;;5.82;100.00;98363.80;110038;1279;23574;-73
2023/01/18 01:49:04;;;;;;;24.30;16.10;;;;;;;5.86;100.00;98361.44;109947;1279;23056;-73
2023/01/18 01:51:31;;;;;;;26.30;17.00;;;;;;;5.87;100.00;98360.31;110016;1257;22449;-73
2023/01/18 01:53:59;;;;;;;29.30;18.80;;;;;;;5.83;100.00;98353.75;107161;1279;22551;-74
2023/01/18 01:56:26;;;;;;;25.70;16.60;;;;;;;5.84;100.00;98354.83;107199;1279;24413;-72
2023/01/18 01:58:55;;;;;;;27.00;16.40;;;;;;;5.88;100.00;98363.39;107218;1275;24200;-72
2023/01/18 02:01:21;;;;;;;27.90;16.20;;;;;;;5.88;100.00;98359.39;107262;1279;23877;-72
2023/01/18 02:03:48;;;;;;;27.20;16.70;;;;;;;5.89;100.00;98358.63;107146;1279;22755;-71
2023/01/18 02:06:30;;;;;;;21.70;15.30;;;;;;;5.89;100.00;98360.77;107226;1279;22583;-72
2023/01/18 02:09:02;;;;;;;24.50;16.00;;;;;;;5.87;100.00;98355.78;107221;1279;25341;-72
2023/01/18 02:11:29;;;;;;;29.20;16.40;;;;;;;5.82;100.00;98355.54;107129;1280;22632;-72
2023/01/18 02:14:00;;;;;;;27.50;16.30;;;;;;;5.83;100.00;98354.95;107070;1279;22539;-72
2023/01/18 02:16:50;;;;;;;29.30;16.70;;;;;;;5.82;100.00;98340.09;107223;1279;22534;-71
2023/01/18 02:19:41;;;;;;;28.40;17.10;;;;;;;5.83;100.00;98338.20;107057;1279;22560;-72
2023/01/18 02:22:21;;;;;;;29.00;16.60;;;;;;;5.82;100.00;98345.80;107104;1279;22583;-72
2023/01/18 02:25:16;;;;;;;25.90;16.70;;;;;;;5.80;100.00;98340.70;107270;1276;22545;-74
2023/01/18 02:27:46;;;;;;;27.20;16.50;;;;;;;5.77;100.00;98334.87;110122;1278;22337;-72
2023/01/18 02:30:18;;;;;;;28.00;17.90;;;;;;;5.80;100.00;98329.19;109976;1278;22494;-73
2023/01/18 02:32:58;;;;;;;24.40;15.40;;;;;;;5.85;100.00;98324.06;108344;1278;23028;-72
2023/01/18 02:35:44;;;;;;;22.20;15.10;;;;;;;5.89;100.00;98326.44;107326;1278;22543;-72
2023/01/18 02:38:37;;;;;;;24.90;15.50;;;;;;;5.90;100.00;98328.92;107063;1277;22534;-72
2023/01/18 02:47:14;;;;;;;29.00;16.70;;;;;;;5.89;100.00;98302.23;107247;1278;22978;-72
2023/01/18 02:49:41;;;;;;;26.60;15.50;;;;;;;5.91;100.00;98300.06;107161;1278;23157;-71
2023/01/18 02:52:36;;;;;;;25.60;15.70;;;;;;;5.93;100.00;98296.66;107241;1278;22626;-74
2023/01/18 02:55:03;;;;;;;27.00;15.80;;;;;;;5.92;100.00;98293.84;107239;1278;22544;-71
2023/01/18 02:57:30;;;;;;;26.60;15.90;;;;;;;5.93;100.00;98303.29;107189;1278;22536;-71
2023/01/18 02:59:57;;;;;;;28.60;16.40;;;;;;;5.97;100.00;98303.39;107195;1278;22809;-74
2023/01/18 03:02:25;;;;;;;26.50;15.60;;;;;;;6.00;100.00;98299.75;107193;1265;22540;-74
2023/01/18 03:04:55;;;;;;;26.90;15.80;;;;;;;6.04;100.00;98304.93;107445;1278;24217;-74
2023/01/18 03:07:52;;;;;;;29.30;16.40;;;;;;;6.05;100.00;98315.04;107219;1278;23484;-74
2023/01/18 03:10:19;;;;;;;27.50;15.90;;;;;;;6.06;100.00;98309.23;107329;1278;23884;-74
2023/01/18 03:13:00;;;;;;;26.60;16.00;;;;;;;6.06;100.00;98317.79;107284;1278;24057;-74
2023/01/18 03:15:35;;;;;;;29.90;17.40;;;;;;;6.03;100.00;98313.23;107145;1278;22622;-74
2023/01/18 03:18:10;;;;;;;25.00;15.70;;;;;;;6.06;100.00;98313.02;107101;1278;23874;-75
2023/01/18 03:20:39;;;;;;;26.40;15.30;;;;;;;6.09;100.00;98309.83;107599;1275;22537;-74
2023/01/18 03:25:56;;;;;;;26.50;15.20;;;;;;;6.13;100.00;98303.64;107428;1275;23121;-74
2023/01/18 03:34:24;;;;;;;25.80;15.10;;;;;;;6.10;100.00;98284.76;107465;1270;23004;-74
2023/01/18 03:36:52;;;;;;;25.10;14.40;;;;;;;6.15;100.00;98288.95;107323;1275;25288;-74
2023/01/18 03:39:33;;;;;;;25.60;14.30;;;;;;;6.18;100.00;98286.98;107486;1275;23305;-74
2023/01/18 03:42:09;;;;;;;24.70;13.00;;;;;;;6.21;100.00;98280.54;107695;1271;22527;-74
2023/01/18 03:44:38;;;;;;;24.90;13.50;;;;;;;6.25;100.00;98289.27;107739;1275;22567;-74
2023/01/18 03:47:05;;;;;;;25.10;14.30;;;;;;;6.28;100.00;98285.57;107498;1275;25307;-74
2023/01/18 08:10:36;;;;;;;49.70;25.70;;;;;;;7.04;100.00;98134.91;104509;1313;545281;-69
2023/01/18 08:13:03;;;;;;;32.30;19.10;;;;;;;7.19;100.00;98147.85;106681;1288;22555;-69
2023/01/18 08:15:30;;;;;;;29.30;14.00;;;;;;;7.35;100.00;98151.40;106764;1285;22535;-69
2023/01/18 08:18:03;;;;;;;23.00;12.20;;;;;;;7.49;100.00;98156.15;106573;1286;22546;-69
2023/01/18 08:20:30;;;;;;;16.40;9.50;;;;;;;7.62;100.00;98156.86;109702;1286;22225;-70
2023/01/18 08:22:58;;;;;;;16.00;8.80;;;;;;;7.76;100.00;98154.02;109681;1286;22241;-69
2023/01/18 09:25:14;;;;;;;33.30;17.60;;;;;;;8.14;100.00;98080.51;103395;1313;544749;-67
2023/01/18 09:27:41;;;;;;;24.40;13.00;;;;;;;8.28;100.00;98083.83;109387;1286;22480;-67
2023/01/18 09:30:09;;;;;;;23.00;10.40;;;;;;;8.47;100.00;98078.37;109361;1288;22255;-66
2023/01/18 09:32:36;;;;;;;25.10;9.50;;;;;;;8.62;100.00;98075.60;109453;1266;22337;-66
2023/01/18 09:35:04;;;;;;;24.60;10.00;;;;;;;8.74;100.00;98075.43;109431;1289;23105;-66
2023/01/18 09:37:31;;;;;;;18.00;8.60;;;;;;;8.84;100.00;98075.23;109425;1289;22532;-67
2023/01/18 09:39:59;;;;;;;18.70;9.00;;;;;;;8.93;100.00;98076.96;109339;1287;279574;-68
2023/01/18 09:42:29;;;;;;;23.20;9.20;;;;;;;9.01;100.00;98081.48;109646;1287;22209;-68
2023/01/18 09:44:57;;;;;;;20.70;10.10;;;;;;;9.07;100.00;98081.25;109434;1287;22354;-67
2023/01/18 09:47:26;;;;;;;17.00;9.30;;;;;;;9.11;100.00;98079.54;109375;1287;22862;-69
2023/01/18 09:49:55;;;;;;;20.30;8.90;;;;;;;9.15;100.00;98066.10;109514;1265;23015;-68
2023/01/18 09:52:31;;;;;;;19.60;9.10;;;;;;;9.22;100.00;98066.95;109568;1287;22441;-68
2023/01/18 09:55:01;;;;;;;17.00;8.80;;;;;;;9.28;100.00;98067.30;109573;1286;22456;-67
2023/01/18 09:58:07;;;;;;;22.10;8.80;;;;;;;9.33;100.00;98067.14;110046;1279;22466;-67
2023/01/18 10:00:36;;;;;;;19.00;9.30;;;;;;;9.35;100.00;98068.67;109951;1279;23234;-68
2023/01/18 10:03:24;;;;;;;20.80;9.60;;;;;;;9.32;100.00;98074.01;109971;1279;22197;-68
2023/01/18 10:06:22;;;;;;;19.40;8.70;;;;;;;9.35;100.00;98072.71;109622;1279;22992;-68
2023/01/18 10:08:55;;;;;;;18.10;8.80;;;;;;;9.36;100.00;98069.67;109745;1279;22325;-68
2023/01/18 10:11:54;;;;;;;15.60;8.00;;;;;;;9.36;100.00;98078.09;109959;1279;22927;-69
2023/01/18 10:14:26;;;;;;;22.30;12.10;;;;;;;9.39;100.00;98087.16;108843;1279;22611;-68
2023/01/18 10:16:58;;;;;;;22.50;11.70;;;;;;;9.37;100.00;98084.00;107181;1276;22989;-68
2023/01/18 10:19:27;;;;;;;21.40;8.40;;;;;;;9.32;100.00;98082.91;107130;1279;24299;-68
2023/01/18 10:22:04;;;;;;;18.50;8.00;;;;;;;9.35;100.00;98085.67;107107;1279;25394;-68
2023/01/18 10:24:49;;;;;;;17.70;8.00;;;;;;;9.37;100.00;98079.44;107034;1273;24236;-67
2023/01/18 10:27:35;;;;;;;17.20;8.00;;;;;;;9.39;100.00;98076.90;107152;1279;24253;-68
2023/01/18 10:30:30;;;;;;;18.00;8.20;;;;;;;9.39;100.00;98073.10;107074;1279;22542;-67
2023/01/18 10:32:59;;;;;;;19.00;8.60;;;;;;;9.36;100.00;98071.00;107199;1279;22676;-67
2023/01/18 10:35:43;;;;;;;19.70;8.40;;;;;;;9.33;100.00;98063.33;107205;1279;22967;-67
2023/01/18 10:38:12;;;;;;;18.70;7.60;;;;;;;9.34;100.00;98069.67;107094;1279;22649;-68
2023/01/18 10:40:39;;;;;;;23.30;11.00;;;;;;;9.36;100.00;98063.10;107062;1279;22593;-68
2023/01/18 10:43:14;;;;;;;20.10;8.70;;;;;;;9.37;100.00;98060.69;107136;1273;23404;-68
2023/01/18 10:45:41;;;;;;;21.10;8.70;;;;;;;9.38;100.00;98064.70;107083;1279;23236;-68
2023/01/18 10:48:30;;;;;;;16.40;7.70;;;;;;;9.37;100.00;98057.50;107139;1280;22553;-68
2023/01/18 10:51:05;;;;;;;18.70;7.80;;;;;;;9.42;100.00;98055.81;107359;1276;22660;-69
2023/01/18 10:53:34;;;;;;;19.50;8.10;;;;;;;9.46;100.00;98054.69;110072;1276;22415;-69
2023/01/18 10:56:16;;;;;;;19.70;7.80;;;;;;;9.49;100.00;98050.77;110135;1276;22298;-68
2023/01/18 10:58:46;;;;;;;21.20;8.50;;;;;;;9.50;100.00;98055.86;110095;1276;22238;-69
2023/01/18 11:01:26;;;;;;;15.20;7.40;;;;;;;9.55;100.00;98056.14;108155;1276;22567;-69
2023/01/18 11:04:04;;;;;;;19.30;7.50;;;;;;;9.59;100.00;98058.60;107208;1276;22525;-68
2023/01/18 11:06:53;;;;;;;17.40;7.30;;;;;;;9.60;100.00;98055.34;107539;1276;22527;-69
2023/01/18 11:09:39;;;;;;;20.60;7.70;;;;;;;9.59;100.00;98052.89;107220;1276;23393;-69
2023/01/18 11:12:37;;;;;;;19.60;7.70;;;;;;;9.57;100.00;98057.71;107371;1276;22624;-68
2023/01/18 11:15:13;;;;;;;17.10;7.00;;;;;;;9.60;100.00;98054.45;107525;1275;23914;-68
2023/01/18 11:17:45;;;;;;;15.30;6.40;;;;;;;9.61;100.00;98059.02;107537;1275;22532;-69
2023/01/18 11:20:17;;;;;;;20.40;7.40;;;;;;;9.62;100.00;98058.15;107324;1275;23054;-68
2023/01/18 11:22:57;;;;;;;17.00;6.80;;;;;;;9.59;100.00;98055.98;107444;1275;22572;-68
2023/01/18 11:25:36;;;;;;;18.70;7.10;;;;;;;9.61;100.00;98057.67;107201;1275;22703;-68
2023/01/18 11:28:06;;;;;;;18.30;7.40;;;;;;;9.62;100.00;98057.01;107287;1275;22537;-69
2023/01/18 11:30:33;;;;;;;16.80;6.80;;;;;;;9.62;100.00;98054.07;107668;1275;25139;-69
2023/01/18 11:33:00;;;;;;;18.50;7.30;;;;;;;9.61;100.00;98055.77;107364;1275;22534;-69
2023/01/18 11:35:35;;;;;;;20.10;6.90;;;;;;;9.60;100.00;98055.10;107311;1275;25335;-68
2023/01/18 11:38:02;;;;;;;20.60;6.90;;;;;;;9.62;100.00;98057.13;107461;1275;23691;-69
2023/01/18 11:40:31;;;;;;;19.60;7.50;;;;;;;9.64;100.00;98062.99;107300;1275;25298;-69
2023/01/18 11:43:02;;;;;;;22.20;9.10;;;;;;;9.66;100.00;98063.17;107455;1275;22552;-68
2023/01/18 11:45:42;;;;;;;21.30;7.60;;;;;;;9.63;100.00;98061.61;107467;1275;24256;-68
2023/01/18 11:48:42;;;;;;;17.10;7.40;;;;;;;9.63;100.00;98060.23;107511;1275;23893;-68
2023/01/18 17:11:03;;;;;;;27.00;9.20;;;;;;;9.20;100.00;98214.61;103490;1305;545860;-67
2023/01/18 17:13:30;;;;;;;22.50;7.10;;;;;;;9.33;100.00;98220.73;106607;1288;23374;-68
2023/01/18 17:15:57;;;;;;;24.30;6.50;;;;;;;9.48;100.00;98223.29;106571;1288;23062;-67
2023/01/18 17:18:25;;;;;;;22.10;6.70;;;;;;;9.60;100.00;98220.17;106572;1288;22542;-67
2023/01/18 17:20:53;;;;;;;24.20;6.10;;;;;;;9.70;100.00;98228.06;106551;1288;22699;-66
2023/01/18 17:23:20;;;;;;;23.20;5.90;;;;;;;9.77;100.00;98230.85;106563;1288;24266;-68
2023/01/18 17:25:47;;;;;;;19.00;5.60;;;;;;;9.83;100.00;98240.30;106528;1286;267675;-67
2023/01/18 17:28:15;;;;;;;21.40;5.60;;;;;;;9.88;100.00;98244.70;106657;1286;22559;-66
2023/01/18 17:30:43;;;;;;;19.70;5.30;;;;;;;9.92;100.00;98249.25;109569;1288;22246;-68
2023/01/18 17:33:21;;;;;;;23.90;6.10;;;;;;;9.96;100.00;98260.26;109504;1286;22301;-67
2023/01/18 17:35:49;;;;;;;18.30;5.00;;;;;;;9.98;100.00;98259.23;109601;1286;23094;-67
2023/01/18 17:38:16;;;;;;;20.80;5.40;;;;;;;10.01;100.00;98260.95;109655;1286;22204;-66
2023/01/18 17:40:51;;;;;;;23.20;5.90;;;;;;;10.06;100.00;98257.33;109579;1286;22248;-67
2023/01/18 17:43:18;;;;;;;23.10;5.60;;;;;;;10.09;100.00;98258.14;109563;1286;22308;-68
2023/01/18 17:46:01;;;;;;;24.80;5.40;;;;;;;10.09;100.00;98262.16;109596;1286;22248;-68
2023/01/18 17:48:28;;;;;;;24.70;5.80;;;;;;;10.04;100.00;98267.64;109774;1283;23104;-68
2023/01/18 17:50:55;;;;;;;23.50;5.90;;;;;;;10.06;100.00;98279.55;109764;1283;22233;-68
2023/01/18 17:53:22;;;;;;;22.00;5.60;;;;;;;10.10;100.00;98277.30;109791;1282;22315;-67
2023/01/18 17:55:49;;;;;;;18.90;5.40;;;;;;;10.14;100.00;98282.13;109766;1283;22445;-68
2023/01/18 17:58:16;;;;;;;22.10;6.20;;;;;;;10.16;100.00;98286.14;109798;1283;22236;-67
2023/01/18 18:00:43;;;;;;;17.60;5.60;;;;;;;10.18;100.00;98289.95;109772;1283;23342;-68
2023/01/18 18:03:10;;;;;;;20.40;5.70;;;;;;;10.15;100.00;98291.76;109772;1283;22204;-68
2023/01/18 18:05:37;;;;;;;22.70;5.90;;;;;;;10.16;100.00;98293.36;109856;1283;22450;-68
2023/01/18 18:08:04;;;;;;;25.20;6.70;;;;;;;10.19;100.00;98291.95;109780;1283;22864;-69
2023/01/18 18:10:32;;;;;;;26.10;6.00;;;;;;;10.20;100.00;98292.86;109760;1283;22318;-68
2023/01/18 18:12:58;;;;;;;20.70;5.30;;;;;;;10.18;100.00;98298.05;109762;1284;22269;-68
2023/01/18 18:15:26;;;;;;;20.60;6.40;;;;;;;10.13;100.00;98285.36;109791;1283;22397;-68
2023/01/18 18:17:53;;;;;;;19.80;5.10;;;;;;;10.13;100.00;98292.91;109793;1283;22242;-68
2023/01/18 18:20:21;;;;;;;20.10;6.00;;;;;;;10.14;100.00;98295.89;109774;1284;22184;-68
2023/01/18 18:22:49;;;;;;;21.80;5.50;;;;;;;10.15;100.00;98291.10;109808;1284;22394;-68
2023/01/18 18:25:17;;;;;;;27.10;6.40;;;;;;;10.13;100.00;98294.59;107698;1283;22548;-68
2023/01/18 18:27:44;;;;;;;22.10;5.30;;;;;;;10.09;100.00;98298.00;107004;1284;22570;-68
2023/01/18 18:30:13;;;;;;;23.40;5.40;;;;;;;10.08;100.00;98303.99;107044;1283;23918;-68
2023/01/18 18:32:40;;;;;;;22.10;5.50;;;;;;;10.08;100.00;98314.55;107242;1283;25329;-68
2023/01/18 18:35:08;;;;;;;17.50;5.20;;;;;;;10.08;100.00;98313.13;106820;1284;22549;-67
2023/01/18 18:37:52;;;;;;;24.20;6.70;;;;;;;10.03;100.00;98308.67;106845;1284;22969;-68
2023/01/18 18:40:20;;;;;;;19.40;6.10;;;;;;;9.96;100.00;98305.20;107584;1284;22772;-68
2023/01/18 18:42:47;;;;;;;23.70;5.90;;;;;;;9.96;100.00;98315.91;107065;1284;22556;-68
2023/01/18 18:45:31;;;;;;;20.30;5.30;;;;;;;9.98;100.00;98320.35;106981;1284;22611;-67
2023/01/18 18:47:58;;;;;;;23.50;5.90;;;;;;;9.98;100.00;98330.54;106962;1283;22575;-68
2023/01/18 18:50:25;;;;;;;19.70;6.00;;;;;;;9.99;100.00;98338.69;106998;1283;22563;-68
2023/01/18 18:52:53;;;;;;;23.30;6.70;;;;;;;9.98;100.00;98351.06;106911;1283;24371;-68
2023/01/18 18:55:20;;;;;;;17.20;5.70;;;;;;;9.93;100.00;98352.95;107073;1283;22559;-68
2023/01/18 18:57:47;;;;;;;19.10;5.60;;;;;;;9.94;100.00;98349.89;107073;1283;25948;-67
2023/01/18 19:00:14;;;;;;;20.30;6.00;;;;;;;9.94;100.00;98349.78;107013;1283;23361;-68
2023/01/18 19:02:41;;;;;;;20.00;6.10;;;;;;;9.92;100.00;98379.10;107161;1283;22637;-67
2023/01/18 19:05:12;;;;;;;25.30;6.50;;;;;;;9.91;100.00;98393.92;107006;1283;22830;-68
2023/01/18 19:07:41;;;;;;;23.70;6.90;;;;;;;9.89;100.00;98398.20;107022;1279;23720;-67
2023/01/18 19:10:10;;;;;;;18.60;6.40;;;;;;;9.86;100.00;98400.33;107163;1279;22530;-67
2023/01/18 19:12:37;;;;;;;22.60;6.10;;;;;;;9.78;100.00;98400.52;109990;1279;22219;-68
2023/01/18 19:15:04;;;;;;;17.50;5.70;;;;;;;9.70;100.00;98401.10;110013;1279;22651;-68
2023/01/18 19:17:31;;;;;;;23.10;6.10;;;;;;;9.67;100.00;98402.08;109968;1277;22672;-68
2023/01/18 19:19:58;;;;;;;23.00;6.60;;;;;;;9.65;100.00;98419.17;109977;1279;22306;-68
2023/01/18 19:22:25;;;;;;;17.80;5.80;;;;;;;9.61;100.00;98426.85;109992;1279;22440;-68
2023/01/18 19:24:52;;;;;;;23.00;5.90;;;;;;;9.58;100.00;98427.81;110004;1279;22232;-68
2023/01/18 19:27:23;;;;;;;22.90;7.30;;;;;;;9.54;100.00;98425.55;109995;1279;23107;-68
2023/01/18 19:29:51;;;;;;;21.80;7.70;;;;;;;9.45;100.00;98424.01;109997;1279;22312;-68
2023/01/18 19:32:19;;;;;;;25.70;7.40;;;;;;;9.35;100.00;98431.16;110008;1279;22230;-68
2023/01/18 19:34:46;;;;;;;21.00;6.30;;;;;;;9.32;100.00;98434.48;110004;1279;22279;-68
2023/01/18 19:37:13;;;;;;;21.30;6.60;;;;;;;9.30;100.00;98445.36;110001;1279;22496;-67
2023/01/18 19:39:40;;;;;;;19.30;5.20;;;;;;;9.29;100.00;98453.30;110014;1279;22304;-68
2023/01/18 19:42:07;;;;;;;22.50;6.10;;;;;;;9.26;100.00;98458.08;110018;1279;22434;-68
2023/01/18 19:44:34;;;;;;;20.30;5.80;;;;;;;9.25;100.00;98464.73;110027;1279;22231;-68
2023/01/18 19:47:02;;;;;;;23.50;6.70;;;;;;;9.22;100.00;98470.30;109973;1273;22405;-66
2023/01/18 19:49:29;;;;;;;25.40;6.20;;;;;;;9.20;100.00;98465.89;109950;1279;23419;-66
2023/01/18 19:51:56;;;;;;;18.70;6.40;;;;;;;9.14;100.00;98464.34;109969;1279;22703;-68
2023/01/18 19:54:24;;;;;;;22.80;5.80;;;;;;;9.08;100.00;98474.80;109985;1279;22174;-68
2023/01/18 19:56:51;;;;;;;18.90;5.40;;;;;;;9.06;100.00;98485.63;110002;1279;22514;-67
2023/01/18 19:59:18;;;;;;;21.70;6.10;;;;;;;9.07;100.00;98491.90;110003;1279;22309;-67
